Skip Navigation Links Skip Navigation Links

Current Weather

Craig Field, Selma, Ala.

For information only: do not use for flight planning or navigation.
Latest weather
Observation time Thursday, January 27, 2022 11:35 PM CST
Local time Thursday, January 27, 2022 11:57 PM CST
Flight conditions Visual Meteorological Conditions
Winds
Wind speed calm
Visibility 10 mi.
Sky condition
Ceiling unlimited
Cloud layer scattered clouds 4,600 ft.
Temperature 37°F
Dewpoint 36°F
Altimeter 30.18 in.Hg
Derived measurements
Relative humidity 93%
Wind chill 37°F
Density altitude -1484 ft.
Remarks
Fully automated report.
Automated weather observing station with precipitation discriminator.
METAR KSEM 280535Z AUTO 00000KT 10SM SCT046 03/02 A3018 RMK AO2

Settings

Location code

InnerDrive.Weather 4.0.6770.0 Release CLR 4.0.30319.42000
Copyright ©2018 Inner Drive Technology. All rights reserved. Portions Copyright ©1986-2018 David Braverman.

Find weather

Site navigation


Skip Navigation Links

Place info

Page info

PayPal - The safer, easier way to pay online!

Return home.

Copyright ©2022 Inner Drive Technology. Purveyors of fine, hand-crafted computer software. Page printed 2022-01-28T05:57:07 UTC.